createdAt,value
2023-05-19T00:01:00.402Z,11.85
2023-05-19T00:03:28.440Z,11.92
2023-05-19T00:05:59.013Z,11.76
2023-05-19T00:08:28.044Z,11.81
2023-05-19T00:10:56.151Z,11.97
2023-05-19T00:13:24.233Z,11.98
2023-05-19T00:15:53.986Z,12.04
2023-05-19T00:18:21.619Z,12.07
2023-05-19T00:20:49.265Z,12.05
2023-05-19T00:23:16.852Z,12.02
2023-05-19T00:25:44.402Z,11.83
2023-05-19T00:28:11.983Z,11.83
2023-05-19T00:30:39.645Z,11.67
2023-05-19T00:33:08.592Z,11.66
2023-05-19T00:35:36.189Z,11.61
2023-05-19T00:38:03.752Z,11.57
2023-05-19T00:40:33.274Z,11.56
2023-05-19T00:43:01.140Z,11.48
2023-05-19T00:45:28.807Z,11.45
2023-05-19T00:47:56.423Z,11.46
2023-05-19T00:50:25.425Z,11.57
2023-05-19T00:52:53.017Z,11.38
2023-05-19T00:55:22.242Z,11.42
2023-05-19T00:57:50.749Z,11.44
2023-05-19T01:00:18.608Z,11.38
2023-05-19T01:02:46.356Z,11.33
2023-05-19T01:05:14.299Z,11.18
2023-05-19T01:07:43.349Z,11.22
2023-05-19T01:10:11.563Z,11.15
2023-05-19T01:12:41.616Z,11.28
2023-05-19T01:15:10.289Z,11.29
2023-05-19T01:17:50.372Z,11.28
2023-05-19T01:20:22.070Z,11.22
2023-05-19T01:23:21.437Z,11.14
2023-05-19T01:26:12.595Z,11.15
2023-05-19T01:29:00.074Z,11.16
2023-05-19T01:31:29.864Z,11.02
2023-05-19T01:33:59.270Z,11.15
2023-05-19T01:36:27.494Z,11.26
2023-05-19T01:38:58.352Z,11.43
2023-05-19T01:41:28.428Z,11.38
2023-05-19T01:43:58.092Z,11.49
2023-05-19T01:46:26.203Z,11.52
2023-05-19T01:48:55.975Z,11.34
2023-05-19T01:51:23.696Z,11.26
2023-05-19T01:53:51.292Z,11.26
2023-05-19T01:56:25.341Z,11.37
2023-05-19T01:59:00.052Z,11.13
2023-05-19T02:01:35.149Z,11.05
2023-05-19T02:04:18.494Z,11.11
2023-05-19T02:06:55.980Z,11.04
2023-05-19T02:09:27.822Z,11.25
2023-05-19T02:12:00.288Z,11.25
2023-05-19T02:14:34.542Z,10.92
2023-05-19T02:17:05.009Z,11.21
2023-05-19T02:19:35.415Z,11.23
2023-05-19T02:22:03.031Z,10.95
2023-05-19T02:24:30.819Z,10.89
2023-05-19T02:26:58.513Z,10.92
2023-05-19T02:29:26.529Z,10.90
2023-05-19T02:31:54.189Z,10.78
2023-05-19T02:34:21.956Z,10.83
2023-05-19T02:36:51.581Z,11.10
2023-05-19T02:39:19.259Z,11.04
2023-05-19T02:41:46.823Z,11.06
2023-05-19T02:44:14.510Z,11.06
2023-05-19T02:46:42.078Z,11.14
2023-05-19T02:49:09.704Z,11.22
2023-05-19T02:51:37.266Z,11.07
2023-05-19T02:54:06.363Z,10.93
2023-05-19T02:56:33.963Z,10.90
2023-05-19T02:59:01.610Z,10.88
2023-05-19T03:01:29.352Z,10.91
2023-05-19T03:03:57.044Z,10.84
2023-05-19T03:06:24.671Z,10.90
2023-05-19T03:08:52.480Z,10.81
2023-05-19T03:11:23.145Z,10.77
2023-05-19T03:13:50.755Z,10.82
2023-05-19T03:16:19.008Z,10.86
2023-05-19T03:18:47.025Z,10.81
2023-05-19T03:21:14.652Z,10.84
2023-05-19T03:23:42.212Z,10.90
2023-05-19T03:26:09.744Z,10.96
2023-05-19T03:28:38.722Z,10.74
2023-05-19T03:31:06.819Z,10.75
2023-05-19T03:33:34.504Z,10.86
2023-05-19T03:36:02.134Z,10.75
2023-05-19T03:38:29.792Z,10.59
2023-05-19T03:40:57.394Z,10.52
2023-05-19T03:43:24.981Z,10.45
2023-05-19T03:45:53.950Z,10.60
2023-05-19T03:48:21.570Z,10.44
2023-05-19T03:50:49.476Z,10.50
2023-05-19T03:53:17.066Z,10.50
2023-05-19T03:55:45.576Z,10.35
2023-05-19T03:58:14.556Z,10.16
2023-05-19T04:00:42.133Z,10.15
2023-05-19T04:03:11.214Z,10.23
2023-05-19T04:05:38.916Z,10.29
2023-05-19T04:08:06.899Z,10.44
2023-05-19T04:10:34.629Z,10.53
2023-05-19T04:13:02.263Z,10.63
2023-05-19T04:15:30.206Z,10.48
2023-05-19T04:17:57.920Z,10.48
2023-05-19T04:20:26.861Z,10.41
2023-05-19T04:22:54.430Z,10.42
2023-05-19T04:25:22.068Z,10.59
2023-05-19T04:27:49.644Z,10.71
2023-05-19T04:30:22.296Z,10.70
2023-05-19T04:32:51.189Z,10.66
2023-05-19T04:35:19.316Z,10.64
2023-05-19T04:37:48.405Z,10.77
2023-05-19T04:40:17.289Z,10.76
2023-05-19T04:42:45.759Z,10.56
2023-05-19T04:45:14.816Z,10.69
2023-05-19T04:47:43.043Z,10.51
2023-05-19T04:50:11.621Z,10.59
2023-05-19T04:52:39.166Z,10.60
2023-05-19T04:55:11.151Z,10.55
2023-05-19T04:57:38.753Z,10.49
2023-05-19T05:00:12.113Z,10.74
2023-05-19T05:02:39.738Z,10.80
2023-05-19T05:05:09.353Z,10.89
2023-05-19T05:07:36.978Z,10.88
2023-05-19T05:10:05.401Z,10.74
2023-05-19T05:12:35.828Z,10.65
2023-05-19T05:15:04.084Z,10.75
2023-05-19T05:17:32.149Z,10.86
2023-05-19T05:20:00.380Z,10.99
2023-05-19T05:22:28.617Z,10.96
2023-05-19T05:24:56.790Z,11.22
2023-05-19T05:27:24.442Z,11.78
2023-05-19T05:29:53.695Z,12.05
2023-05-19T05:32:21.595Z,12.46
2023-05-19T05:34:49.510Z,13.16
2023-05-19T05:37:17.256Z,12.60
2023-05-19T05:39:44.837Z,12.48
2023-05-19T05:42:12.406Z,12.58
2023-05-19T05:44:39.967Z,12.29
2023-05-19T05:47:11.745Z,12.79
2023-05-19T05:49:40.315Z,12.09
2023-05-19T05:52:09.523Z,11.73
2023-05-19T05:54:37.684Z,11.81
2023-05-19T05:57:06.040Z,11.69
2023-05-19T05:59:34.720Z,11.40
2023-05-19T06:02:02.560Z,11.11
2023-05-19T06:04:31.482Z,11.09
2023-05-19T06:07:01.575Z,11.05
2023-05-19T06:09:30.182Z,11.05
2023-05-19T06:11:59.297Z,10.86
2023-05-19T06:14:27.052Z,10.95
2023-05-19T06:16:54.743Z,11.03
2023-05-19T06:19:22.486Z,10.82
2023-05-19T06:21:51.629Z,10.96
2023-05-19T06:24:19.367Z,11.17
2023-05-19T06:26:46.931Z,11.87
2023-05-19T06:29:14.486Z,12.01
2023-05-19T06:31:42.219Z,11.54
2023-05-19T06:34:12.243Z,11.80
2023-05-19T06:36:41.308Z,11.95
2023-05-19T06:39:10.266Z,11.85
2023-05-19T06:41:37.838Z,11.55
2023-05-19T06:44:07.591Z,11.29
2023-05-19T06:46:35.175Z,10.97
2023-05-19T06:49:02.818Z,10.87
2023-05-19T06:51:31.324Z,11.30
2023-05-19T06:53:58.972Z,11.20
2023-05-19T06:56:27.868Z,11.64
2023-05-19T06:58:55.427Z,11.73
2023-05-19T07:01:23.044Z,12.06
2023-05-19T07:03:50.847Z,11.74
2023-05-19T07:06:18.561Z,11.99
2023-05-19T07:08:46.229Z,12.78
2023-05-19T07:11:14.131Z,12.96
2023-05-19T07:13:43.039Z,12.28
2023-05-19T07:16:10.682Z,12.07
2023-05-19T07:18:38.309Z,11.57
2023-05-19T07:21:07.206Z,11.23
2023-05-19T07:23:34.808Z,11.07
2023-05-19T07:26:02.481Z,10.96
2023-05-19T07:28:30.041Z,10.88
2023-05-19T07:30:58.930Z,10.84
2023-05-19T07:33:26.928Z,10.89
2023-05-19T07:35:54.585Z,11.03
2023-05-19T07:38:22.290Z,11.15
2023-05-19T07:40:49.863Z,11.08
2023-05-19T07:43:17.386Z,11.13
2023-05-19T07:45:45.186Z,11.02
2023-05-19T07:48:14.246Z,10.90
2023-05-19T07:50:42.001Z,11.09
2023-05-19T07:53:09.613Z,11.24
2023-05-19T07:55:37.218Z,11.18
2023-05-19T07:58:04.786Z,11.71
2023-05-19T08:00:32.634Z,11.89
2023-05-19T08:03:01.692Z,11.58
2023-05-19T08:05:30.912Z,11.39
2023-05-19T08:07:58.468Z,11.44
2023-05-19T08:10:26.066Z,11.80
2023-05-19T08:12:53.623Z,11.82
2023-05-19T08:15:21.719Z,11.50
2023-05-19T08:17:49.818Z,11.59
2023-05-19T08:20:17.468Z,11.43
2023-05-19T08:22:46.355Z,11.72
2023-05-19T08:25:13.936Z,12.38
2023-05-19T08:27:42.314Z,11.98
2023-05-19T08:30:11.078Z,11.67
2023-05-19T08:32:38.698Z,11.71
2023-05-19T08:35:07.635Z,11.85
2023-05-19T08:37:37.023Z,12.13
2023-05-19T08:40:08.764Z,12.46
2023-05-19T08:42:36.366Z,12.14
2023-05-19T08:45:04.469Z,12.05
2023-05-19T08:47:34.081Z,12.06
2023-05-19T08:50:07.419Z,11.86
2023-05-19T08:52:47.243Z,11.91
2023-05-19T08:55:31.037Z,11.81
2023-05-19T08:57:59.059Z,11.90
2023-05-19T09:00:26.889Z,11.84
2023-05-19T09:03:00.245Z,11.81
2023-05-19T09:05:29.211Z,11.81
2023-05-19T09:07:57.109Z,12.17
2023-05-19T09:10:27.248Z,12.28
2023-05-19T09:12:56.583Z,12.34
2023-05-19T09:15:27.813Z,12.74
2023-05-19T09:18:07.891Z,13.15
2023-05-19T09:20:38.229Z,14.18
2023-05-19T09:23:07.738Z,13.58
2023-05-19T09:25:36.811Z,13.38
2023-05-19T09:28:04.534Z,13.42
2023-05-19T09:30:32.287Z,13.09
2023-05-19T09:33:00.954Z,12.96
2023-05-19T09:35:28.646Z,13.01
2023-05-19T09:37:56.366Z,12.88
2023-05-19T09:40:29.338Z,12.68
2023-05-19T09:42:58.214Z,12.74
2023-05-19T09:45:30.195Z,13.10
2023-05-19T09:47:57.853Z,12.66
2023-05-19T09:50:29.995Z,12.98
2023-05-19T09:52:58.441Z,12.99
2023-05-19T09:55:27.510Z,13.18
2023-05-19T09:57:56.873Z,13.05
2023-05-19T10:00:27.477Z,13.16
2023-05-19T10:02:57.329Z,12.83
2023-05-19T10:05:25.393Z,13.01
2023-05-19T10:07:54.515Z,13.23
2023-05-19T10:10:23.089Z,13.08
2023-05-19T10:12:51.387Z,13.00
2023-05-19T10:15:21.441Z,13.45
2023-05-19T10:17:52.930Z,13.58
2023-05-19T10:20:20.810Z,13.75
2023-05-19T10:22:48.589Z,13.88
2023-05-19T10:25:18.510Z,14.34
2023-05-19T10:27:51.158Z,15.30
2023-05-19T10:30:26.440Z,15.36
2023-05-19T10:32:57.872Z,15.60
2023-05-19T10:35:43.137Z,14.17
2023-05-19T10:38:21.955Z,14.35
2023-05-19T10:40:54.327Z,14.63
2023-05-19T10:43:31.984Z,14.73
2023-05-19T10:45:59.790Z,14.80
2023-05-19T10:48:34.661Z,15.04
2023-05-19T10:51:02.483Z,14.95
2023-05-19T10:53:32.400Z,15.02
2023-05-19T10:56:04.020Z,15.43
2023-05-19T10:58:38.254Z,15.57
2023-05-19T11:01:10.454Z,16.33
2023-05-19T11:03:47.417Z,16.99
2023-05-19T11:06:19.684Z,16.68
2023-05-19T11:08:48.356Z,16.79
2023-05-19T11:11:17.230Z,17.12
2023-05-19T11:13:48.891Z,17.38
2023-05-19T11:16:20.148Z,17.38
2023-05-19T11:18:50.903Z,17.35
2023-05-19T11:21:20.718Z,17.22
2023-05-19T11:23:48.550Z,17.56
2023-05-19T11:26:16.350Z,17.65
2023-05-19T11:28:44.292Z,17.10
2023-05-19T11:31:12.362Z,16.75
2023-05-19T11:33:40.911Z,17.15
2023-05-19T11:36:12.403Z,16.35
2023-05-19T11:38:40.027Z,16.55
2023-05-19T11:41:08.585Z,17.21
2023-05-19T11:43:36.198Z,17.13
2023-05-19T11:46:03.965Z,17.23
2023-05-19T11:48:31.690Z,17.25
2023-05-19T11:51:01.262Z,17.36
2023-05-19T11:53:33.290Z,17.35
2023-05-19T11:56:04.376Z,16.87
2023-05-19T11:58:32.399Z,16.12
2023-05-19T12:01:05.364Z,16.18
2023-05-19T12:03:33.226Z,16.61
2023-05-19T12:06:01.029Z,16.77
2023-05-19T12:08:30.587Z,16.96
2023-05-19T12:10:58.318Z,16.66
2023-05-19T12:13:26.342Z,16.65
2023-05-19T12:15:54.278Z,16.39
2023-05-19T12:18:22.140Z,16.81
2023-05-19T12:20:49.891Z,17.16
2023-05-19T12:23:17.540Z,17.06
2023-05-19T12:25:46.497Z,16.51
2023-05-19T12:28:14.147Z,16.55
2023-05-19T12:30:41.994Z,16.62
2023-05-19T12:33:09.714Z,16.55
2023-05-19T12:35:38.570Z,16.44
2023-05-19T12:38:07.090Z,16.42
2023-05-19T12:40:36.296Z,16.23
2023-05-19T12:43:05.786Z,16.61
2023-05-19T12:45:35.318Z,16.26
2023-05-19T12:48:04.665Z,16.51
2023-05-19T12:50:32.816Z,16.46
2023-05-19T12:53:00.800Z,17.09
2023-05-19T12:55:28.385Z,17.10
2023-05-19T12:57:57.796Z,16.68
2023-05-19T13:00:28.963Z,16.56
2023-05-19T13:02:59.897Z,16.51
2023-05-19T13:05:28.845Z,16.79
2023-05-19T13:07:57.741Z,16.85
2023-05-19T13:10:26.973Z,16.56
2023-05-19T13:12:55.528Z,16.44
2023-05-19T13:15:24.510Z,15.83
2023-05-19T13:17:54.712Z,15.70
2023-05-19T13:20:22.725Z,15.51
2023-05-19T13:22:51.171Z,15.50
2023-05-19T13:25:18.894Z,16.02
2023-05-19T13:27:47.120Z,16.18
2023-05-19T13:30:15.699Z,16.46
2023-05-19T13:32:43.517Z,16.32
2023-05-19T13:35:13.630Z,16.42
2023-05-19T13:37:43.581Z,16.27
2023-05-19T13:40:12.343Z,16.01
2023-05-19T13:42:40.243Z,15.96
2023-05-19T13:45:09.320Z,15.95
2023-05-19T13:47:37.074Z,15.45
2023-05-19T13:50:05.790Z,15.38
2023-05-19T13:52:34.819Z,15.33
2023-05-19T13:55:02.491Z,15.49
2023-05-19T13:57:30.173Z,15.43
2023-05-19T14:00:03.326Z,15.50
2023-05-19T14:02:32.068Z,15.63
2023-05-19T14:04:59.776Z,15.36
2023-05-19T14:07:28.216Z,15.50
2023-05-19T14:09:57.192Z,15.63
2023-05-19T14:12:33.940Z,15.53
2023-05-19T14:15:09.160Z,15.32
2023-05-19T14:17:37.507Z,15.26
2023-05-19T14:20:06.240Z,15.33
2023-05-19T14:22:33.830Z,15.46
2023-05-19T14:25:03.083Z,15.65
2023-05-19T14:27:30.717Z,15.21
2023-05-19T14:29:58.478Z,15.21
2023-05-19T14:32:28.591Z,15.46
2023-05-19T14:34:57.745Z,15.60
2023-05-19T14:37:26.499Z,15.72
2023-05-19T14:39:54.509Z,15.41
2023-05-19T14:42:23.462Z,15.97
2023-05-19T14:44:51.278Z,16.02
2023-05-19T14:47:18.824Z,16.03
2023-05-19T14:49:46.364Z,16.17
2023-05-19T14:52:14.001Z,16.43
2023-05-19T14:54:41.587Z,16.32
2023-05-19T14:57:09.305Z,16.23
2023-05-19T14:59:39.477Z,15.75
2023-05-19T15:02:07.322Z,15.63
2023-05-19T15:04:34.930Z,15.46
2023-05-19T15:09:33.021Z,15.37
2023-05-19T15:12:01.020Z,15.44
2023-05-19T15:14:30.483Z,15.56
2023-05-19T15:17:00.071Z,15.30
2023-05-19T15:19:27.946Z,14.89
2023-05-19T15:21:55.662Z,15.18
2023-05-19T15:24:24.195Z,15.25
2023-05-19T15:26:51.977Z,14.93
2023-05-19T15:29:19.531Z,14.82
2023-05-19T15:31:47.464Z,14.90
2023-05-19T15:34:16.391Z,14.98
2023-05-19T15:36:43.937Z,15.04
2023-05-19T15:39:11.546Z,14.90
2023-05-19T15:41:39.233Z,14.74
2023-05-19T15:44:07.599Z,14.68
2023-05-19T15:46:35.487Z,15.08
2023-05-19T15:49:03.451Z,15.83
2023-05-19T15:51:32.457Z,15.96
2023-05-19T15:54:00.032Z,15.85
2023-05-19T15:56:27.829Z,15.99
2023-05-19T15:58:55.501Z,15.83
2023-05-19T16:01:23.209Z,15.71
2023-05-19T16:03:50.994Z,16.26
2023-05-19T16:06:18.721Z,16.29
2023-05-19T16:08:47.586Z,16.19
2023-05-19T16:11:15.433Z,15.41
2023-05-19T16:13:43.004Z,15.04
2023-05-19T16:16:10.683Z,14.89
2023-05-19T16:18:38.496Z,14.96
2023-05-19T16:21:06.735Z,15.07
2023-05-19T16:23:34.277Z,14.94
2023-05-19T16:26:03.488Z,14.85
2023-05-19T16:28:32.325Z,14.76
2023-05-19T16:31:00.550Z,14.74
2023-05-19T16:33:29.895Z,14.65
2023-05-19T16:35:59.710Z,15.07
2023-05-19T16:38:27.529Z,15.12
2023-05-19T16:40:55.279Z,15.08
2023-05-19T16:43:24.251Z,15.09
2023-05-19T16:45:51.846Z,15.01
2023-05-19T16:48:19.543Z,14.93
2023-05-19T16:50:48.792Z,15.01
2023-05-19T16:53:16.376Z,14.96
2023-05-19T16:55:43.924Z,14.98
2023-05-19T16:58:11.594Z,15.10
2023-05-19T17:00:40.756Z,15.09
2023-05-19T17:03:08.425Z,15.02
2023-05-19T17:05:38.130Z,14.82
2023-05-19T17:08:06.300Z,14.69
2023-05-19T17:10:34.100Z,14.45
2023-05-19T17:13:02.035Z,14.81
2023-05-19T17:15:29.641Z,14.49
2023-05-19T17:17:58.652Z,14.40
2023-05-19T17:20:26.271Z,14.59
2023-05-19T17:22:53.931Z,14.80
2023-05-19T17:25:21.472Z,14.80
2023-05-19T17:27:49.053Z,14.70
2023-05-19T17:30:17.382Z,14.68
2023-05-19T17:32:44.960Z,14.83
2023-05-19T17:35:13.977Z,14.50
2023-05-19T17:37:41.692Z,14.76
2023-05-19T17:40:10.728Z,14.54
2023-05-19T17:42:38.256Z,14.55
2023-05-19T17:45:07.469Z,15.16
2023-05-19T17:47:35.112Z,14.54
2023-05-19T17:50:02.668Z,14.36
2023-05-19T17:52:32.839Z,14.34
2023-05-19T17:55:00.845Z,14.56
2023-05-19T17:57:32.076Z,14.44
2023-05-19T18:00:00.213Z,14.23
2023-05-19T18:02:28.452Z,14.20
2023-05-19T18:04:56.501Z,14.19
2023-05-19T18:07:26.036Z,14.54
2023-05-19T18:09:56.962Z,14.17
2023-05-19T18:12:24.499Z,13.91
2023-05-19T18:14:52.069Z,13.80
2023-05-19T18:17:19.696Z,14.08
2023-05-19T18:19:47.312Z,14.58
2023-05-19T18:22:14.881Z,14.63
2023-05-19T18:24:42.404Z,14.10
2023-05-19T18:27:11.294Z,13.63
2023-05-19T18:29:39.225Z,13.46
2023-05-19T18:32:07.709Z,13.47
2023-05-19T18:34:35.394Z,13.66
2023-05-19T18:37:02.977Z,13.42
2023-05-19T18:39:30.510Z,13.44
2023-05-19T18:41:58.311Z,13.43
2023-05-19T18:44:27.233Z,13.76
2023-05-19T18:46:54.802Z,13.61
2023-05-19T18:49:24.807Z,13.78
2023-05-19T18:51:52.438Z,13.86
2023-05-19T18:54:21.581Z,13.54
2023-05-19T18:56:49.141Z,13.27
2023-05-19T18:59:17.987Z,13.18
2023-05-19T19:01:47.497Z,13.12
2023-05-19T19:04:18.698Z,13.06
2023-05-19T19:06:46.729Z,12.99
2023-05-19T19:09:14.792Z,13.05
2023-05-19T19:11:42.610Z,13.08
2023-05-19T19:14:10.420Z,12.99
2023-05-19T19:16:38.190Z,13.38
2023-05-19T19:19:10.432Z,13.46
2023-05-19T19:21:38.195Z,13.67
2023-05-19T19:24:06.521Z,13.86
2023-05-19T19:26:34.034Z,13.67
2023-05-19T19:29:01.603Z,13.81
2023-05-19T19:31:29.733Z,13.78
2023-05-19T19:34:00.765Z,13.45
2023-05-19T19:36:29.703Z,13.18
2023-05-19T19:38:57.237Z,13.07
2023-05-19T19:41:25.225Z,13.11
2023-05-19T19:43:53.010Z,13.06
2023-05-19T19:46:20.636Z,13.21
2023-05-19T19:48:48.345Z,13.26
2023-05-19T19:51:15.969Z,13.29
2023-05-19T19:53:45.058Z,13.22
2023-05-19T19:56:12.621Z,13.27
2023-05-19T19:58:40.340Z,13.27
2023-05-19T20:01:08.268Z,13.71
2023-05-19T20:03:36.438Z,14.43
2023-05-19T20:06:04.081Z,15.10
2023-05-19T20:08:31.735Z,15.33
2023-05-19T20:11:00.863Z,14.34
2023-05-19T20:13:28.600Z,14.10
2023-05-19T20:15:57.782Z,13.61
2023-05-19T20:18:25.791Z,13.53
2023-05-19T20:20:53.358Z,13.40
2023-05-19T20:23:21.167Z,13.34
2023-05-19T20:26:09.304Z,13.43
2023-05-19T20:28:37.927Z,13.49
2023-05-19T20:31:06.188Z,13.20
2023-05-19T20:33:33.808Z,13.20
2023-05-19T20:36:01.458Z,14.14
2023-05-19T20:38:29.055Z,15.02
2023-05-19T20:40:56.594Z,15.20
2023-05-19T20:43:24.148Z,14.70
2023-05-19T20:45:53.169Z,13.95
2023-05-19T20:48:20.869Z,13.31
2023-05-19T20:50:48.422Z,13.19
2023-05-19T20:53:16.181Z,13.25
2023-05-19T20:55:45.159Z,13.27
2023-05-19T20:58:12.908Z,13.33
2023-05-19T21:00:40.592Z,13.28
2023-05-19T21:03:09.555Z,13.48
2023-05-19T21:05:37.238Z,13.64
2023-05-19T21:08:05.018Z,13.56
2023-05-19T21:10:32.736Z,13.99
2023-05-19T21:13:00.436Z,14.80
2023-05-19T21:15:28.042Z,14.41
2023-05-19T21:17:55.741Z,14.50
2023-05-19T21:20:25.838Z,14.69
2023-05-19T21:22:53.519Z,14.54
2023-05-19T21:25:21.082Z,14.32
2023-05-19T21:27:48.652Z,14.21
2023-05-19T21:30:16.212Z,15.07
2023-05-19T21:32:44.089Z,15.45
2023-05-19T21:35:11.666Z,15.69
2023-05-19T21:37:40.552Z,15.20
2023-05-19T21:40:09.646Z,14.71
2023-05-19T21:42:37.335Z,14.17
2023-05-19T21:45:06.400Z,14.27
2023-05-19T21:47:34.012Z,14.61
2023-05-19T21:50:01.621Z,15.10
2023-05-19T21:52:29.236Z,15.14
2023-05-19T21:54:58.363Z,15.48
2023-05-19T21:57:26.029Z,14.75
2023-05-19T21:59:53.570Z,14.26
2023-05-19T22:02:21.200Z,13.89
2023-05-19T22:04:48.878Z,13.54
2023-05-19T22:07:16.482Z,13.48
2023-05-19T22:09:44.073Z,13.43
2023-05-19T22:12:12.963Z,13.36
2023-05-19T22:14:41.136Z,13.26
2023-05-19T22:17:08.676Z,13.21
2023-05-19T22:19:36.264Z,13.24
2023-05-19T22:22:13.309Z,13.26
2023-05-19T22:24:42.025Z,13.20
2023-05-19T22:27:09.754Z,13.17
2023-05-19T22:29:39.253Z,13.12
2023-05-19T22:32:11.602Z,13.03
2023-05-19T22:34:39.466Z,13.05
2023-05-19T22:37:07.156Z,13.10
2023-05-19T22:39:34.727Z,13.05
2023-05-19T22:42:02.470Z,13.04
2023-05-19T22:44:30.008Z,13.04
2023-05-19T22:46:58.970Z,13.05
2023-05-19T22:49:27.408Z,13.06
2023-05-19T22:51:54.969Z,13.04
2023-05-19T22:54:22.506Z,12.72
2023-05-19T22:56:50.043Z,12.47
2023-05-19T22:59:18.423Z,12.59
2023-05-19T23:01:47.086Z,12.62
2023-05-19T23:04:16.143Z,12.62
2023-05-19T23:06:43.768Z,12.67
2023-05-19T23:09:11.300Z,12.44
2023-05-19T23:11:38.884Z,12.51
2023-05-19T23:14:06.551Z,12.57
2023-05-19T23:16:34.137Z,12.65
2023-05-19T23:19:01.934Z,12.65
2023-05-19T23:21:31.453Z,12.58
2023-05-19T23:23:59.372Z,12.57
2023-05-19T23:26:27.335Z,12.63
2023-05-19T23:28:54.873Z,12.67
2023-05-19T23:31:22.571Z,12.73
2023-05-19T23:33:50.376Z,12.63
2023-05-19T23:36:19.123Z,12.63
2023-05-19T23:38:48.007Z,12.62
2023-05-19T23:41:15.581Z,12.46
2023-05-19T23:43:43.125Z,12.43
2023-05-19T23:46:10.836Z,12.43
2023-05-19T23:48:39.255Z,12.39
2023-05-19T23:51:06.982Z,12.35
2023-05-19T23:53:34.551Z,12.20
2023-05-19T23:56:03.561Z,12.24
2023-05-19T23:58:31.202Z,12.24
